metar:  

KBOI 260553Z 23005KT 10SM CLR 17/06 A2980 RMK AO2 SLP068 60000 T01720061 10267 20172 51016

TTF METAR YSSY 260600Z 18010KT 9999 FEW030 15/12 Q1034 RMK RF00.0/000.0 NOSIG